sensor_id;sensor_type;location;lat;lon;timestamp;P1;durP1;ratioP1;P2;durP2;ratioP2
28627;SDS011;15815;46.760;19.604;2023-12-22T00:02:21;14.00;;;7.53;;
28627;SDS011;15815;46.760;19.604;2023-12-22T00:04:47;16.90;;;7.40;;
28627;SDS011;15815;46.760;19.604;2023-12-22T00:07:13;18.05;;;8.15;;
28627;SDS011;15815;46.760;19.604;2023-12-22T00:09:38;14.20;;;6.85;;
28627;SDS011;15815;46.760;19.604;2023-12-22T00:12:04;13.45;;;7.45;;
28627;SDS011;15815;46.760;19.604;2023-12-22T00:14:29;15.82;;;7.93;;
28627;SDS011;15815;46.760;19.604;2023-12-22T00:16:55;13.43;;;7.57;;
28627;SDS011;15815;46.760;19.604;2023-12-22T00:19:20;15.20;;;7.45;;
28627;SDS011;15815;46.760;19.604;2023-12-22T00:21:46;26.70;;;11.10;;
28627;SDS011;15815;46.760;19.604;2023-12-22T00:24:11;23.98;;;10.73;;
28627;SDS011;15815;46.760;19.604;2023-12-22T00:26:37;28.05;;;10.57;;
28627;SDS011;15815;46.760;19.604;2023-12-22T00:29:02;21.63;;;9.88;;
28627;SDS011;15815;46.760;19.604;2023-12-22T00:31:28;17.67;;;9.07;;
28627;SDS011;15815;46.760;19.604;2023-12-22T00:33:53;14.73;;;7.55;;
28627;SDS011;15815;46.760;19.604;2023-12-22T00:36:19;15.93;;;8.32;;
28627;SDS011;15815;46.760;19.604;2023-12-22T00:38:47;13.90;;;8.07;;
28627;SDS011;15815;46.760;19.604;2023-12-22T00:41:12;11.73;;;7.55;;
28627;SDS011;15815;46.760;19.604;2023-12-22T00:43:41;20.20;;;8.38;;
28627;SDS011;15815;46.760;19.604;2023-12-22T00:46:06;19.33;;;9.05;;
28627;SDS011;15815;46.760;19.604;2023-12-22T00:48:32;18.33;;;8.93;;
28627;SDS011;15815;46.760;19.604;2023-12-22T00:50:57;21.55;;;9.52;;
28627;SDS011;15815;46.760;19.604;2023-12-22T00:53:23;18.30;;;9.30;;
28627;SDS011;15815;46.760;19.604;2023-12-22T00:55:51;18.88;;;8.35;;
28627;SDS011;15815;46.760;19.604;2023-12-22T00:58:16;18.70;;;8.25;;
28627;SDS011;15815;46.760;19.604;2023-12-22T01:00:42;15.82;;;7.95;;
28627;SDS011;15815;46.760;19.604;2023-12-22T01:03:07;16.48;;;8.80;;
28627;SDS011;15815;46.760;19.604;2023-12-22T01:05:33;16.77;;;9.25;;
28627;SDS011;15815;46.760;19.604;2023-12-22T01:07:58;20.15;;;10.02;;
28627;SDS011;15815;46.760;19.604;2023-12-22T01:10:24;18.45;;;9.13;;
28627;SDS011;15815;46.760;19.604;2023-12-22T01:12:49;14.07;;;8.00;;
28627;SDS011;15815;46.760;19.604;2023-12-22T01:15:15;12.88;;;7.35;;
28627;SDS011;15815;46.760;19.604;2023-12-22T01:17:40;14.68;;;8.15;;
28627;SDS011;15815;46.760;19.604;2023-12-22T01:20:06;15.15;;;8.27;;
28627;SDS011;15815;46.760;19.604;2023-12-22T01:22:31;15.82;;;8.00;;
28627;SDS011;15815;46.760;19.604;2023-12-22T01:24:57;16.67;;;7.97;;
28627;SDS011;15815;46.760;19.604;2023-12-22T01:27:23;14.18;;;8.32;;
28627;SDS011;15815;46.760;19.604;2023-12-22T01:29:48;14.90;;;7.82;;
28627;SDS011;15815;46.760;19.604;2023-12-22T01:32:14;13.60;;;7.55;;
28627;SDS011;15815;46.760;19.604;2023-12-22T01:34:39;17.10;;;9.23;;
28627;SDS011;15815;46.760;19.604;2023-12-22T01:37:04;20.40;;;8.80;;
28627;SDS011;15815;46.760;19.604;2023-12-22T01:39:30;14.85;;;8.48;;
28627;SDS011;15815;46.760;19.604;2023-12-22T01:41:55;15.13;;;8.50;;
28627;SDS011;15815;46.760;19.604;2023-12-22T01:44:22;18.33;;;9.23;;
28627;SDS011;15815;46.760;19.604;2023-12-22T01:46:48;15.55;;;8.63;;
28627;SDS011;15815;46.760;19.604;2023-12-22T01:49:15;15.95;;;8.40;;
28627;SDS011;15815;46.760;19.604;2023-12-22T01:51:40;16.45;;;8.27;;
28627;SDS011;15815;46.760;19.604;2023-12-22T01:54:07;12.23;;;7.15;;
28627;SDS011;15815;46.760;19.604;2023-12-22T01:56:32;13.02;;;7.05;;
28627;SDS011;15815;46.760;19.604;2023-12-22T01:58:59;14.13;;;7.47;;
28627;SDS011;15815;46.760;19.604;2023-12-22T02:01:27;14.30;;;8.43;;
28627;SDS011;15815;46.760;19.604;2023-12-22T02:03:53;12.25;;;7.13;;
28627;SDS011;15815;46.760;19.604;2023-12-22T02:06:19;12.32;;;6.63;;
28627;SDS011;15815;46.760;19.604;2023-12-22T02:08:47;10.57;;;6.68;;
28627;SDS011;15815;46.760;19.604;2023-12-22T02:11:14;10.82;;;6.15;;
28627;SDS011;15815;46.760;19.604;2023-12-22T02:13:40;12.70;;;6.38;;
28627;SDS011;15815;46.760;19.604;2023-12-22T02:16:11;10.65;;;6.40;;
28627;SDS011;15815;46.760;19.604;2023-12-22T02:18:55;10.88;;;5.72;;
28627;SDS011;15815;46.760;19.604;2023-12-22T02:21:22;7.18;;;4.68;;
28627;SDS011;15815;46.760;19.604;2023-12-22T02:23:48;7.68;;;4.82;;
28627;SDS011;15815;46.760;19.604;2023-12-22T02:26:34;9.23;;;4.80;;
28627;SDS011;15815;46.760;19.604;2023-12-22T02:29:06;7.93;;;4.88;;
28627;SDS011;15815;46.760;19.604;2023-12-22T02:34:12;8.80;;;3.80;;
28627;SDS011;15815;46.760;19.604;2023-12-22T02:36:43;10.13;;;4.97;;
28627;SDS011;15815;46.760;19.604;2023-12-22T02:39:10;6.47;;;4.45;;
28627;SDS011;15815;46.760;19.604;2023-12-22T02:41:37;7.47;;;4.50;;
28627;SDS011;15815;46.760;19.604;2023-12-22T02:44:06;9.27;;;5.45;;
28627;SDS011;15815;46.760;19.604;2023-12-22T02:46:31;10.05;;;4.88;;
28627;SDS011;15815;46.760;19.604;2023-12-22T02:48:57;8.02;;;4.10;;
28627;SDS011;15815;46.760;19.604;2023-12-22T02:51:22;9.73;;;5.43;;
28627;SDS011;15815;46.760;19.604;2023-12-22T02:53:48;7.35;;;4.68;;
28627;SDS011;15815;46.760;19.604;2023-12-22T02:56:13;6.88;;;4.40;;
28627;SDS011;15815;46.760;19.604;2023-12-22T02:58:39;8.43;;;4.55;;
28627;SDS011;15815;46.760;19.604;2023-12-22T03:01:04;9.05;;;4.63;;
28627;SDS011;15815;46.760;19.604;2023-12-22T03:03:30;9.18;;;4.30;;
28627;SDS011;15815;46.760;19.604;2023-12-22T03:05:55;8.70;;;4.45;;
28627;SDS011;15815;46.760;19.604;2023-12-22T03:08:21;7.65;;;4.65;;
28627;SDS011;15815;46.760;19.604;2023-12-22T03:10:46;10.43;;;5.18;;
28627;SDS011;15815;46.760;19.604;2023-12-22T03:13:12;9.73;;;5.32;;
28627;SDS011;15815;46.760;19.604;2023-12-22T03:15:37;9.82;;;4.93;;
28627;SDS011;15815;46.760;19.604;2023-12-22T03:18:03;8.50;;;5.45;;
28627;SDS011;15815;46.760;19.604;2023-12-22T03:20:28;11.18;;;5.30;;
28627;SDS011;15815;46.760;19.604;2023-12-22T03:22:54;12.43;;;5.88;;
28627;SDS011;15815;46.760;19.604;2023-12-22T03:25:19;10.43;;;5.25;;
28627;SDS011;15815;46.760;19.604;2023-12-22T03:27:45;12.65;;;5.93;;
28627;SDS011;15815;46.760;19.604;2023-12-22T03:30:10;12.05;;;7.45;;
28627;SDS011;15815;46.760;19.604;2023-12-22T03:32:36;13.25;;;6.72;;
28627;SDS011;15815;46.760;19.604;2023-12-22T03:35:01;11.23;;;6.90;;
28627;SDS011;15815;46.760;19.604;2023-12-22T03:37:27;10.20;;;5.80;;
28627;SDS011;15815;46.760;19.604;2023-12-22T03:39:53;11.30;;;6.25;;
28627;SDS011;15815;46.760;19.604;2023-12-22T03:42:18;11.35;;;5.32;;
28627;SDS011;15815;46.760;19.604;2023-12-22T03:44:43;8.80;;;5.13;;
28627;SDS011;15815;46.760;19.604;2023-12-22T03:47:09;14.38;;;5.70;;
28627;SDS011;15815;46.760;19.604;2023-12-22T03:49:34;9.52;;;5.07;;
28627;SDS011;15815;46.760;19.604;2023-12-22T03:52:00;8.07;;;3.33;;
28627;SDS011;15815;46.760;19.604;2023-12-22T03:54:25;8.55;;;3.25;;
28627;SDS011;15815;46.760;19.604;2023-12-22T03:56:51;3.63;;;2.63;;
28627;SDS011;15815;46.760;19.604;2023-12-22T03:59:16;7.90;;;2.75;;
28627;SDS011;15815;46.760;19.604;2023-12-22T04:01:42;4.25;;;2.28;;
28627;SDS011;15815;46.760;19.604;2023-12-22T04:04:07;4.78;;;2.75;;
28627;SDS011;15815;46.760;19.604;2023-12-22T04:06:33;3.28;;;2.03;;
28627;SDS011;15815;46.760;19.604;2023-12-22T04:09:02;3.72;;;2.50;;
28627;SDS011;15815;46.760;19.604;2023-12-22T04:11:28;4.32;;;2.15;;
28627;SDS011;15815;46.760;19.604;2023-12-22T04:13:53;3.75;;;2.13;;
28627;SDS011;15815;46.760;19.604;2023-12-22T04:16:19;3.10;;;1.75;;
28627;SDS011;15815;46.760;19.604;2023-12-22T04:18:44;4.55;;;1.77;;
28627;SDS011;15815;46.760;19.604;2023-12-22T04:21:14;5.05;;;2.17;;
28627;SDS011;15815;46.760;19.604;2023-12-22T04:23:39;2.65;;;1.98;;
28627;SDS011;15815;46.760;19.604;2023-12-22T04:26:04;1.92;;;1.55;;
28627;SDS011;15815;46.760;19.604;2023-12-22T04:28:30;6.70;;;2.72;;
28627;SDS011;15815;46.760;19.604;2023-12-22T04:30:56;3.90;;;2.17;;
28627;SDS011;15815;46.760;19.604;2023-12-22T04:33:21;4.35;;;2.40;;
28627;SDS011;15815;46.760;19.604;2023-12-22T04:35:46;3.38;;;1.80;;
28627;SDS011;15815;46.760;19.604;2023-12-22T04:38:12;4.97;;;2.60;;
28627;SDS011;15815;46.760;19.604;2023-12-22T04:40:37;4.13;;;2.40;;
28627;SDS011;15815;46.760;19.604;2023-12-22T04:43:03;2.88;;;2.10;;
28627;SDS011;15815;46.760;19.604;2023-12-22T04:45:28;4.88;;;2.35;;
28627;SDS011;15815;46.760;19.604;2023-12-22T04:47:54;5.13;;;2.47;;
28627;SDS011;15815;46.760;19.604;2023-12-22T04:50:19;5.47;;;2.30;;
28627;SDS011;15815;46.760;19.604;2023-12-22T04:52:45;4.85;;;2.58;;
28627;SDS011;15815;46.760;19.604;2023-12-22T04:55:10;4.22;;;1.73;;
28627;SDS011;15815;46.760;19.604;2023-12-22T04:57:36;5.78;;;2.70;;
28627;SDS011;15815;46.760;19.604;2023-12-22T05:00:02;5.13;;;2.38;;
28627;SDS011;15815;46.760;19.604;2023-12-22T05:02:28;5.00;;;2.33;;
28627;SDS011;15815;46.760;19.604;2023-12-22T05:04:54;5.57;;;1.77;;
28627;SDS011;15815;46.760;19.604;2023-12-22T05:07:19;3.50;;;1.60;;
28627;SDS011;15815;46.760;19.604;2023-12-22T05:09:45;2.05;;;1.50;;
28627;SDS011;15815;46.760;19.604;2023-12-22T05:12:10;1.52;;;1.25;;
28627;SDS011;15815;46.760;19.604;2023-12-22T05:14:36;2.65;;;1.42;;
28627;SDS011;15815;46.760;19.604;2023-12-22T05:17:01;2.83;;;1.60;;
28627;SDS011;15815;46.760;19.604;2023-12-22T05:19:29;3.53;;;1.45;;
28627;SDS011;15815;46.760;19.604;2023-12-22T05:21:54;6.68;;;2.15;;
28627;SDS011;15815;46.760;19.604;2023-12-22T05:24:20;3.83;;;1.75;;
28627;SDS011;15815;46.760;19.604;2023-12-22T05:26:45;3.20;;;1.75;;
28627;SDS011;15815;46.760;19.604;2023-12-22T05:29:11;6.18;;;1.60;;
28627;SDS011;15815;46.760;19.604;2023-12-22T05:31:38;1.25;;;1.15;;
28627;SDS011;15815;46.760;19.604;2023-12-22T05:34:03;2.15;;;1.27;;
28627;SDS011;15815;46.760;19.604;2023-12-22T05:36:29;0.80;;;0.80;;
28627;SDS011;15815;46.760;19.604;2023-12-22T05:38:54;5.57;;;1.25;;
28627;SDS011;15815;46.760;19.604;2023-12-22T05:41:20;1.88;;;1.45;;
28627;SDS011;15815;46.760;19.604;2023-12-22T05:43:45;5.53;;;2.00;;
28627;SDS011;15815;46.760;19.604;2023-12-22T05:46:10;1.98;;;1.50;;
28627;SDS011;15815;46.760;19.604;2023-12-22T05:48:36;2.15;;;1.25;;
28627;SDS011;15815;46.760;19.604;2023-12-22T05:51:02;8.15;;;2.03;;
28627;SDS011;15815;46.760;19.604;2023-12-22T05:53:27;4.15;;;1.70;;
28627;SDS011;15815;46.760;19.604;2023-12-22T05:55:52;11.40;;;3.17;;
28627;SDS011;15815;46.760;19.604;2023-12-22T05:58:18;24.55;;;6.28;;
28627;SDS011;15815;46.760;19.604;2023-12-22T06:00:43;17.05;;;4.28;;
28627;SDS011;15815;46.760;19.604;2023-12-22T06:03:09;10.60;;;3.13;;
28627;SDS011;15815;46.760;19.604;2023-12-22T06:05:37;5.03;;;2.30;;
28627;SDS011;15815;46.760;19.604;2023-12-22T06:08:03;2.72;;;1.58;;
28627;SDS011;15815;46.760;19.604;2023-12-22T06:10:29;2.53;;;1.20;;
28627;SDS011;15815;46.760;19.604;2023-12-22T06:12:58;3.83;;;1.38;;
28627;SDS011;15815;46.760;19.604;2023-12-22T06:15:23;1.38;;;1.10;;
28627;SDS011;15815;46.760;19.604;2023-12-22T06:17:49;1.52;;;1.10;;
28627;SDS011;15815;46.760;19.604;2023-12-22T06:20:15;5.78;;;1.25;;
28627;SDS011;15815;46.760;19.604;2023-12-22T06:22:40;4.20;;;0.90;;
28627;SDS011;15815;46.760;19.604;2023-12-22T06:25:06;2.80;;;1.23;;
28627;SDS011;15815;46.760;19.604;2023-12-22T06:27:31;1.75;;;0.85;;
28627;SDS011;15815;46.760;19.604;2023-12-22T06:29:58;2.30;;;1.20;;
28627;SDS011;15815;46.760;19.604;2023-12-22T06:32:26;4.55;;;1.50;;
28627;SDS011;15815;46.760;19.604;2023-12-22T06:34:52;8.20;;;3.15;;
28627;SDS011;15815;46.760;19.604;2023-12-22T06:37:17;10.48;;;4.75;;
28627;SDS011;15815;46.760;19.604;2023-12-22T06:39:43;10.10;;;4.20;;
28627;SDS011;15815;46.760;19.604;2023-12-22T06:42:08;9.07;;;3.35;;
28627;SDS011;15815;46.760;19.604;2023-12-22T06:44:34;8.43;;;4.07;;
28627;SDS011;15815;46.760;19.604;2023-12-22T06:46:59;8.32;;;3.38;;
28627;SDS011;15815;46.760;19.604;2023-12-22T06:49:25;7.07;;;2.72;;
28627;SDS011;15815;46.760;19.604;2023-12-22T06:51:50;8.40;;;3.70;;
28627;SDS011;15815;46.760;19.604;2023-12-22T06:54:17;9.30;;;3.90;;
28627;SDS011;15815;46.760;19.604;2023-12-22T06:56:42;9.93;;;4.28;;
28627;SDS011;15815;46.760;19.604;2023-12-22T06:59:08;7.63;;;2.70;;
28627;SDS011;15815;46.760;19.604;2023-12-22T07:01:34;10.73;;;3.55;;
28627;SDS011;15815;46.760;19.604;2023-12-22T07:04:00;6.93;;;4.03;;
28627;SDS011;15815;46.760;19.604;2023-12-22T07:06:31;6.22;;;3.33;;
28627;SDS011;15815;46.760;19.604;2023-12-22T07:11:35;7.10;;;3.90;;
28627;SDS011;15815;46.760;19.604;2023-12-22T07:14:01;12.80;;;4.30;;
28627;SDS011;15815;46.760;19.604;2023-12-22T07:16:26;9.68;;;3.53;;
28627;SDS011;15815;46.760;19.604;2023-12-22T07:18:52;7.38;;;3.33;;
28627;SDS011;15815;46.760;19.604;2023-12-22T07:21:17;4.70;;;2.85;;
28627;SDS011;15815;46.760;19.604;2023-12-22T07:23:43;9.27;;;2.40;;
28627;SDS011;15815;46.760;19.604;2023-12-22T07:26:08;6.03;;;2.80;;
28627;SDS011;15815;46.760;19.604;2023-12-22T07:28:34;6.20;;;2.83;;
28627;SDS011;15815;46.760;19.604;2023-12-22T07:30:59;2.47;;;1.83;;
28627;SDS011;15815;46.760;19.604;2023-12-22T07:33:25;5.28;;;1.90;;
28627;SDS011;15815;46.760;19.604;2023-12-22T07:35:50;6.53;;;3.30;;
28627;SDS011;15815;46.760;19.604;2023-12-22T07:38:16;9.70;;;3.60;;
28627;SDS011;15815;46.760;19.604;2023-12-22T07:40:41;23.33;;;6.57;;
28627;SDS011;15815;46.760;19.604;2023-12-22T07:43:07;13.85;;;5.20;;
28627;SDS011;15815;46.760;19.604;2023-12-22T07:45:32;10.13;;;5.15;;
28627;SDS011;15815;46.760;19.604;2023-12-22T07:47:58;5.75;;;3.45;;
28627;SDS011;15815;46.760;19.604;2023-12-22T07:50:23;5.75;;;2.50;;
28627;SDS011;15815;46.760;19.604;2023-12-22T07:52:49;3.08;;;1.88;;
28627;SDS011;15815;46.760;19.604;2023-12-22T07:55:17;4.22;;;2.10;;
28627;SDS011;15815;46.760;19.604;2023-12-22T07:57:43;2.35;;;1.73;;
28627;SDS011;15815;46.760;19.604;2023-12-22T08:00:08;3.05;;;1.52;;
28627;SDS011;15815;46.760;19.604;2023-12-22T08:02:35;2.72;;;1.50;;
28627;SDS011;15815;46.760;19.604;2023-12-22T08:05:00;4.32;;;2.38;;
28627;SDS011;15815;46.760;19.604;2023-12-22T08:07:26;6.28;;;2.78;;
28627;SDS011;15815;46.760;19.604;2023-12-22T08:09:55;9.15;;;3.30;;
28627;SDS011;15815;46.760;19.604;2023-12-22T08:12:21;8.55;;;3.20;;
28627;SDS011;15815;46.760;19.604;2023-12-22T08:14:47;5.45;;;3.05;;
28627;SDS011;15815;46.760;19.604;2023-12-22T08:17:16;7.43;;;2.33;;
28627;SDS011;15815;46.760;19.604;2023-12-22T08:19:42;5.47;;;2.22;;
28627;SDS011;15815;46.760;19.604;2023-12-22T08:22:07;5.45;;;2.05;;
28627;SDS011;15815;46.760;19.604;2023-12-22T08:24:33;7.18;;;2.10;;
28627;SDS011;15815;46.760;19.604;2023-12-22T08:26:58;2.53;;;1.15;;
28627;SDS011;15815;46.760;19.604;2023-12-22T08:29:24;4.00;;;1.17;;
28627;SDS011;15815;46.760;19.604;2023-12-22T08:31:50;4.85;;;1.40;;
28627;SDS011;15815;46.760;19.604;2023-12-22T08:34:17;2.08;;;1.08;;
28627;SDS011;15815;46.760;19.604;2023-12-22T08:36:45;8.35;;;1.45;;
28627;SDS011;15815;46.760;19.604;2023-12-22T08:39:11;3.88;;;0.90;;
28627;SDS011;15815;46.760;19.604;2023-12-22T08:41:40;3.03;;;1.75;;
28627;SDS011;15815;46.760;19.604;2023-12-22T08:44:06;4.97;;;1.75;;
28627;SDS011;15815;46.760;19.604;2023-12-22T08:46:32;6.55;;;1.85;;
28627;SDS011;15815;46.760;19.604;2023-12-22T08:48:58;3.58;;;1.75;;
28627;SDS011;15815;46.760;19.604;2023-12-22T08:51:23;6.72;;;1.60;;
28627;SDS011;15815;46.760;19.604;2023-12-22T08:53:49;3.78;;;1.60;;
28627;SDS011;15815;46.760;19.604;2023-12-22T08:56:14;3.35;;;1.58;;
28627;SDS011;15815;46.760;19.604;2023-12-22T08:58:40;2.13;;;1.08;;
28627;SDS011;15815;46.760;19.604;2023-12-22T09:01:05;3.65;;;1.67;;
28627;SDS011;15815;46.760;19.604;2023-12-22T09:03:33;5.07;;;2.08;;
28627;SDS011;15815;46.760;19.604;2023-12-22T09:05:58;17.20;;;5.22;;
28627;SDS011;15815;46.760;19.604;2023-12-22T09:08:25;9.98;;;3.30;;
28627;SDS011;15815;46.760;19.604;2023-12-22T09:10:50;12.07;;;3.50;;
28627;SDS011;15815;46.760;19.604;2023-12-22T09:13:16;5.45;;;2.08;;
28627;SDS011;15815;46.760;19.604;2023-12-22T09:15:41;2.78;;;1.70;;
28627;SDS011;15815;46.760;19.604;2023-12-22T09:18:07;1.83;;;1.20;;
28627;SDS011;15815;46.760;19.604;2023-12-22T09:20:32;2.97;;;1.52;;
28627;SDS011;15815;46.760;19.604;2023-12-22T09:22:59;1.77;;;0.90;;
28627;SDS011;15815;46.760;19.604;2023-12-22T09:25:24;1.50;;;1.00;;
28627;SDS011;15815;46.760;19.604;2023-12-22T09:27:50;1.38;;;0.77;;
28627;SDS011;15815;46.760;19.604;2023-12-22T09:30:15;1.75;;;0.93;;
28627;SDS011;15815;46.760;19.604;2023-12-22T09:32:41;1.35;;;0.88;;
28627;SDS011;15815;46.760;19.604;2023-12-22T09:35:06;3.38;;;0.90;;
28627;SDS011;15815;46.760;19.604;2023-12-22T09:37:32;1.85;;;0.95;;
28627;SDS011;15815;46.760;19.604;2023-12-22T09:39:57;1.33;;;1.23;;
28627;SDS011;15815;46.760;19.604;2023-12-22T09:42:23;4.70;;;2.35;;
28627;SDS011;15815;46.760;19.604;2023-12-22T09:44:50;2.38;;;1.08;;
28627;SDS011;15815;46.760;19.604;2023-12-22T09:49:53;1.65;;;1.42;;
28627;SDS011;15815;46.760;19.604;2023-12-22T09:52:19;3.67;;;1.60;;
28627;SDS011;15815;46.760;19.604;2023-12-22T09:54:45;3.20;;;1.60;;
28627;SDS011;15815;46.760;19.604;2023-12-22T09:57:13;3.10;;;1.00;;
28627;SDS011;15815;46.760;19.604;2023-12-22T09:59:38;1.63;;;1.05;;
28627;SDS011;15815;46.760;19.604;2023-12-22T10:02:04;1.67;;;1.27;;
28627;SDS011;15815;46.760;19.604;2023-12-22T10:04:33;2.17;;;1.45;;
28627;SDS011;15815;46.760;19.604;2023-12-22T10:06:58;3.45;;;1.75;;
28627;SDS011;15815;46.760;19.604;2023-12-22T10:09:26;4.13;;;1.70;;
28627;SDS011;15815;46.760;19.604;2023-12-22T10:11:53;2.08;;;0.80;;
28627;SDS011;15815;46.760;19.604;2023-12-22T10:14:21;1.52;;;0.82;;
28627;SDS011;15815;46.760;19.604;2023-12-22T10:16:51;3.10;;;0.63;;
28627;SDS011;15815;46.760;19.604;2023-12-22T10:31:38;2.33;;;1.23;;
28627;SDS011;15815;46.760;19.604;2023-12-22T10:34:04;1.67;;;1.17;;
28627;SDS011;15815;46.760;19.604;2023-12-22T10:36:30;1.55;;;0.60;;
28627;SDS011;15815;46.760;19.604;2023-12-22T10:38:55;3.30;;;1.25;;
28627;SDS011;15815;46.760;19.604;2023-12-22T10:41:21;2.65;;;1.45;;
28627;SDS011;15815;46.760;19.604;2023-12-22T10:43:46;3.20;;;1.33;;
28627;SDS011;15815;46.760;19.604;2023-12-22T10:46:12;2.70;;;1.50;;
28627;SDS011;15815;46.760;19.604;2023-12-22T10:48:41;2.22;;;0.70;;
28627;SDS011;15815;46.760;19.604;2023-12-22T10:51:09;1.75;;;1.10;;
28627;SDS011;15815;46.760;19.604;2023-12-22T10:53:35;1.85;;;0.90;;
28627;SDS011;15815;46.760;19.604;2023-12-22T10:56:02;5.55;;;1.13;;
28627;SDS011;15815;46.760;19.604;2023-12-22T10:58:28;2.22;;;0.55;;
28627;SDS011;15815;46.760;19.604;2023-12-22T11:00:54;7.30;;;2.30;;
28627;SDS011;15815;46.760;19.604;2023-12-22T11:03:21;5.85;;;2.05;;
28627;SDS011;15815;46.760;19.604;2023-12-22T11:05:48;2.30;;;0.88;;
28627;SDS011;15815;46.760;19.604;2023-12-22T11:08:17;1.48;;;0.95;;
28627;SDS011;15815;46.760;19.604;2023-12-22T11:10:44;0.77;;;0.68;;
28627;SDS011;15815;46.760;19.604;2023-12-22T11:13:12;0.70;;;0.30;;
28627;SDS011;15815;46.760;19.604;2023-12-22T11:15:39;1.70;;;0.70;;
28627;SDS011;15815;46.760;19.604;2023-12-22T11:18:05;1.13;;;0.65;;
28627;SDS011;15815;46.760;19.604;2023-12-22T11:20:33;2.15;;;0.77;;
28627;SDS011;15815;46.760;19.604;2023-12-22T11:23:01;0.88;;;0.40;;
28627;SDS011;15815;46.760;19.604;2023-12-22T11:25:27;1.45;;;0.90;;
28627;SDS011;15815;46.760;19.604;2023-12-22T11:27:55;4.22;;;0.80;;
28627;SDS011;15815;46.760;19.604;2023-12-22T11:30:24;1.70;;;0.68;;
28627;SDS011;15815;46.760;19.604;2023-12-22T11:32:53;2.35;;;1.10;;
28627;SDS011;15815;46.760;19.604;2023-12-22T11:35:19;0.88;;;0.70;;
28627;SDS011;15815;46.760;19.604;2023-12-22T11:37:49;3.88;;;1.00;;
28627;SDS011;15815;46.760;19.604;2023-12-22T11:40:15;2.33;;;1.00;;
28627;SDS011;15815;46.760;19.604;2023-12-22T11:42:45;2.90;;;1.35;;
28627;SDS011;15815;46.760;19.604;2023-12-22T11:45:14;4.80;;;1.48;;
28627;SDS011;15815;46.760;19.604;2023-12-22T11:47:40;5.07;;;1.85;;
28627;SDS011;15815;46.760;19.604;2023-12-22T11:50:09;3.13;;;1.20;;
28627;SDS011;15815;46.760;19.604;2023-12-22T11:52:36;2.05;;;1.05;;
28627;SDS011;15815;46.760;19.604;2023-12-22T11:55:02;3.33;;;1.27;;
28627;SDS011;15815;46.760;19.604;2023-12-22T11:59:58;3.70;;;1.98;;
28627;SDS011;15815;46.760;19.604;2023-12-22T12:02:29;1.50;;;1.05;;
28627;SDS011;15815;46.760;19.604;2023-12-22T12:04:59;2.80;;;1.30;;
28627;SDS011;15815;46.760;19.604;2023-12-22T12:07:42;8.52;;;1.40;;
28627;SDS011;15815;46.760;19.604;2023-12-22T12:15:32;1.65;;;0.77;;
28627;SDS011;15815;46.760;19.604;2023-12-22T12:18:00;2.83;;;1.27;;
28627;SDS011;15815;46.760;19.604;2023-12-22T12:20:29;1.05;;;0.80;;
28627;SDS011;15815;46.760;19.604;2023-12-22T12:22:57;3.03;;;1.10;;
28627;SDS011;15815;46.760;19.604;2023-12-22T12:25:28;1.00;;;0.90;;
28627;SDS011;15815;46.760;19.604;2023-12-22T12:28:04;2.67;;;1.10;;
28627;SDS011;15815;46.760;19.604;2023-12-22T12:30:32;1.58;;;0.93;;
28627;SDS011;15815;46.760;19.604;2023-12-22T12:32:59;2.83;;;1.30;;
28627;SDS011;15815;46.760;19.604;2023-12-22T12:35:32;3.05;;;1.30;;
28627;SDS011;15815;46.760;19.604;2023-12-22T12:37:59;3.13;;;2.08;;
28627;SDS011;15815;46.760;19.604;2023-12-22T12:40:25;4.78;;;2.45;;
28627;SDS011;15815;46.760;19.604;2023-12-22T12:42:53;2.70;;;1.27;;
28627;SDS011;15815;46.760;19.604;2023-12-22T12:45:22;4.63;;;1.10;;
28627;SDS011;15815;46.760;19.604;2023-12-22T12:47:57;1.77;;;0.93;;
28627;SDS011;15815;46.760;19.604;2023-12-22T12:50:27;2.95;;;1.15;;
28627;SDS011;15815;46.760;19.604;2023-12-22T12:52:54;4.07;;;1.00;;
28627;SDS011;15815;46.760;19.604;2023-12-22T12:55:25;0.82;;;0.70;;
28627;SDS011;15815;46.760;19.604;2023-12-22T12:57:55;0.80;;;0.70;;
28627;SDS011;15815;46.760;19.604;2023-12-22T13:00:27;1.02;;;0.80;;
28627;SDS011;15815;46.760;19.604;2023-12-22T13:03:04;1.88;;;0.88;;
28627;SDS011;15815;46.760;19.604;2023-12-22T13:05:32;0.45;;;0.45;;
28627;SDS011;15815;46.760;19.604;2023-12-22T13:08:11;3.40;;;0.60;;
28627;SDS011;15815;46.760;19.604;2023-12-22T13:10:38;1.77;;;0.50;;
28627;SDS011;15815;46.760;19.604;2023-12-22T13:13:04;20.38;;;7.20;;
28627;SDS011;15815;46.760;19.604;2023-12-22T13:15:30;3.85;;;1.50;;
28627;SDS011;15815;46.760;19.604;2023-12-22T13:17:56;2.50;;;1.00;;
28627;SDS011;15815;46.760;19.604;2023-12-22T13:20:22;1.30;;;1.20;;
28627;SDS011;15815;46.760;19.604;2023-12-22T13:22:48;2.80;;;0.98;;
28627;SDS011;15815;46.760;19.604;2023-12-22T13:25:14;1.45;;;0.55;;
28627;SDS011;15815;46.760;19.604;2023-12-22T13:27:49;2.85;;;0.95;;
28627;SDS011;15815;46.760;19.604;2023-12-22T13:30:31;5.88;;;1.63;;
28627;SDS011;15815;46.760;19.604;2023-12-22T13:33:04;1.35;;;0.90;;
28627;SDS011;15815;46.760;19.604;2023-12-22T13:35:30;1.40;;;0.80;;
28627;SDS011;15815;46.760;19.604;2023-12-22T13:37:56;1.35;;;0.73;;
28627;SDS011;15815;46.760;19.604;2023-12-22T13:40:21;2.03;;;1.13;;
28627;SDS011;15815;46.760;19.604;2023-12-22T13:42:56;3.40;;;1.10;;
28627;SDS011;15815;46.760;19.604;2023-12-22T13:45:23;2.30;;;1.75;;
28627;SDS011;15815;46.760;19.604;2023-12-22T13:47:54;2.45;;;0.80;;
28627;SDS011;15815;46.760;19.604;2023-12-22T13:50:20;1.77;;;1.08;;
28627;SDS011;15815;46.760;19.604;2023-12-22T13:52:45;2.10;;;1.02;;
28627;SDS011;15815;46.760;19.604;2023-12-22T13:55:11;1.45;;;0.95;;
28627;SDS011;15815;46.760;19.604;2023-12-22T13:57:38;2.38;;;0.82;;
28627;SDS011;15815;46.760;19.604;2023-12-22T14:00:45;4.38;;;1.40;;
28627;SDS011;15815;46.760;19.604;2023-12-22T14:02:55;1.75;;;1.10;;
28627;SDS011;15815;46.760;19.604;2023-12-22T14:05:21;2.47;;;1.00;;
28627;SDS011;15815;46.760;19.604;2023-12-22T14:07:47;1.23;;;1.00;;
28627;SDS011;15815;46.760;19.604;2023-12-22T14:10:14;4.63;;;1.25;;
28627;SDS011;15815;46.760;19.604;2023-12-22T14:12:40;5.13;;;1.63;;
28627;SDS011;15815;46.760;19.604;2023-12-22T14:15:09;1.88;;;1.20;;
28627;SDS011;15815;46.760;19.604;2023-12-22T14:17:36;3.03;;;1.23;;
28627;SDS011;15815;46.760;19.604;2023-12-22T14:20:02;3.88;;;1.48;;
28627;SDS011;15815;46.760;19.604;2023-12-22T14:22:28;3.40;;;1.40;;
28627;SDS011;15815;46.760;19.604;2023-12-22T14:24:53;5.32;;;2.10;;
28627;SDS011;15815;46.760;19.604;2023-12-22T14:27:19;7.75;;;2.38;;
28627;SDS011;15815;46.760;19.604;2023-12-22T14:29:48;7.22;;;2.75;;
28627;SDS011;15815;46.760;19.604;2023-12-22T14:32:14;6.30;;;2.05;;
28627;SDS011;15815;46.760;19.604;2023-12-22T14:34:39;5.80;;;2.20;;
28627;SDS011;15815;46.760;19.604;2023-12-22T14:37:05;5.35;;;2.08;;
28627;SDS011;15815;46.760;19.604;2023-12-22T14:39:30;6.90;;;3.40;;
28627;SDS011;15815;46.760;19.604;2023-12-22T14:41:56;7.47;;;2.78;;
28627;SDS011;15815;46.760;19.604;2023-12-22T14:44:22;13.73;;;4.28;;
28627;SDS011;15815;46.760;19.604;2023-12-22T14:46:47;11.65;;;3.53;;
28627;SDS011;15815;46.760;19.604;2023-12-22T14:49:13;5.35;;;2.42;;
28627;SDS011;15815;46.760;19.604;2023-12-22T14:51:39;8.20;;;3.80;;
28627;SDS011;15815;46.760;19.604;2023-12-22T14:54:07;4.03;;;2.25;;
28627;SDS011;15815;46.760;19.604;2023-12-22T14:56:33;8.82;;;3.28;;